sensor_id;sensor_type;location;lat;lon;timestamp;temperature;humidity
17423;DHT22;8829;47.932;7.810;2023-03-23T00:02:11;14.80;99.90
17423;DHT22;8829;47.932;7.810;2023-03-23T00:04:38;14.80;99.90
17423;DHT22;8829;47.932;7.810;2023-03-23T00:07:05;14.70;99.90
17423;DHT22;8829;47.932;7.810;2023-03-23T00:09:31;14.70;99.90
17423;DHT22;8829;47.932;7.810;2023-03-23T00:12:01;14.80;99.90
17423;DHT22;8829;47.932;7.810;2023-03-23T00:14:31;14.80;99.90
17423;DHT22;8829;47.932;7.810;2023-03-23T00:17:06;14.90;99.90
17423;DHT22;8829;47.932;7.810;2023-03-23T00:19:35;15.00;99.90
17423;DHT22;8829;47.932;7.810;2023-03-23T00:22:12;15.00;99.90
17423;DHT22;8829;47.932;7.810;2023-03-23T00:24:39;15.00;99.90
17423;DHT22;8829;47.932;7.810;2023-03-23T00:27:07;15.10;99.90
17423;DHT22;8829;47.932;7.810;2023-03-23T00:29:38;15.00;99.90
17423;DHT22;8829;47.932;7.810;2023-03-23T00:32:05;15.10;99.90
17423;DHT22;8829;47.932;7.810;2023-03-23T00:34:32;15.00;99.90
17423;DHT22;8829;47.932;7.810;2023-03-23T00:37:00;15.10;99.90
17423;DHT22;8829;47.932;7.810;2023-03-23T00:39:28;15.10;99.90
17423;DHT22;8829;47.932;7.810;2023-03-23T00:41:55;15.10;99.90
17423;DHT22;8829;47.932;7.810;2023-03-23T00:44:27;15.10;99.90
17423;DHT22;8829;47.932;7.810;2023-03-23T00:46:56;15.10;99.90
17423;DHT22;8829;47.932;7.810;2023-03-23T00:49:24;15.10;99.90
17423;DHT22;8829;47.932;7.810;2023-03-23T00:51:51;15.20;99.90
17423;DHT22;8829;47.932;7.810;2023-03-23T00:54:18;15.20;99.90
17423;DHT22;8829;47.932;7.810;2023-03-23T00:56:45;15.20;99.90
17423;DHT22;8829;47.932;7.810;2023-03-23T00:59:12;15.20;99.90
17423;DHT22;8829;47.932;7.810;2023-03-23T01:01:40;15.30;99.90
17423;DHT22;8829;47.932;7.810;2023-03-23T01:04:07;15.30;99.90
17423;DHT22;8829;47.932;7.810;2023-03-23T01:06:38;15.20;99.90
17423;DHT22;8829;47.932;7.810;2023-03-23T01:09:06;15.30;99.90
17423;DHT22;8829;47.932;7.810;2023-03-23T01:11:33;15.30;99.90
17423;DHT22;8829;47.932;7.810;2023-03-23T01:14:00;15.30;99.90
17423;DHT22;8829;47.932;7.810;2023-03-23T01:16:27;15.30;99.90
17423;DHT22;8829;47.932;7.810;2023-03-23T01:18:55;15.30;99.90
17423;DHT22;8829;47.932;7.810;2023-03-23T01:21:22;15.30;99.90
17423;DHT22;8829;47.932;7.810;2023-03-23T01:23:50;15.30;99.90
17423;DHT22;8829;47.932;7.810;2023-03-23T01:26:19;15.40;99.90
17423;DHT22;8829;47.932;7.810;2023-03-23T01:28:46;15.50;99.90
17423;DHT22;8829;47.932;7.810;2023-03-23T01:31:15;15.50;99.90
17423;DHT22;8829;47.932;7.810;2023-03-23T01:33:42;15.50;99.90
17423;DHT22;8829;47.932;7.810;2023-03-23T01:36:13;15.50;99.90
17423;DHT22;8829;47.932;7.810;2023-03-23T01:38:41;15.40;99.90
17423;DHT22;8829;47.932;7.810;2023-03-23T01:41:09;15.40;99.90
17423;DHT22;8829;47.932;7.810;2023-03-23T01:43:36;15.50;99.90
17423;DHT22;8829;47.932;7.810;2023-03-23T01:46:03;15.40;99.90
17423;DHT22;8829;47.932;7.810;2023-03-23T01:48:32;15.50;99.90
17423;DHT22;8829;47.932;7.810;2023-03-23T01:51:03;15.50;99.90
17423;DHT22;8829;47.932;7.810;2023-03-23T01:53:36;15.60;99.90
17423;DHT22;8829;47.932;7.810;2023-03-23T01:56:05;15.60;99.90
17423;DHT22;8829;47.932;7.810;2023-03-23T01:58:35;15.60;99.90
17423;DHT22;8829;47.932;7.810;2023-03-23T02:01:05;15.60;99.90
17423;DHT22;8829;47.932;7.810;2023-03-23T02:03:33;15.60;99.90
17423;DHT22;8829;47.932;7.810;2023-03-23T02:06:01;15.50;99.90
17423;DHT22;8829;47.932;7.810;2023-03-23T02:08:29;15.50;99.90
17423;DHT22;8829;47.932;7.810;2023-03-23T02:10:59;15.50;99.90
17423;DHT22;8829;47.932;7.810;2023-03-23T02:13:26;15.50;99.90
17423;DHT22;8829;47.932;7.810;2023-03-23T02:16:01;15.40;99.90
17423;DHT22;8829;47.932;7.810;2023-03-23T02:18:43;15.40;99.90
17423;DHT22;8829;47.932;7.810;2023-03-23T02:21:59;15.40;99.90
17423;DHT22;8829;47.932;7.810;2023-03-23T02:24:45;15.50;99.90
17423;DHT22;8829;47.932;7.810;2023-03-23T02:27:28;15.50;99.90
17423;DHT22;8829;47.932;7.810;2023-03-23T02:30:09;15.50;99.90
17423;DHT22;8829;47.932;7.810;2023-03-23T02:35:37;15.50;99.90
17423;DHT22;8829;47.932;7.810;2023-03-23T02:38:08;15.50;99.90
17423;DHT22;8829;47.932;7.810;2023-03-23T02:40:39;15.50;99.90
17423;DHT22;8829;47.932;7.810;2023-03-23T02:43:10;15.50;99.90
17423;DHT22;8829;47.932;7.810;2023-03-23T02:45:38;15.50;99.90
17423;DHT22;8829;47.932;7.810;2023-03-23T02:48:07;15.50;99.90
17423;DHT22;8829;47.932;7.810;2023-03-23T02:50:37;15.50;99.90
17423;DHT22;8829;47.932;7.810;2023-03-23T02:53:08;15.50;99.90
17423;DHT22;8829;47.932;7.810;2023-03-23T02:55:39;15.50;99.90
17423;DHT22;8829;47.932;7.810;2023-03-23T02:58:07;15.50;99.90
17423;DHT22;8829;47.932;7.810;2023-03-23T03:00:35;15.50;99.90
17423;DHT22;8829;47.932;7.810;2023-03-23T03:03:04;15.50;99.90
17423;DHT22;8829;47.932;7.810;2023-03-23T03:05:38;15.50;99.90
17423;DHT22;8829;47.932;7.810;2023-03-23T03:08:13;15.50;99.90
17423;DHT22;8829;47.932;7.810;2023-03-23T03:10:48;15.50;99.90
17423;DHT22;8829;47.932;7.810;2023-03-23T03:13:22;15.50;99.90
17423;DHT22;8829;47.932;7.810;2023-03-23T03:15:54;15.50;99.90
17423;DHT22;8829;47.932;7.810;2023-03-23T03:18:26;15.50;99.90
17423;DHT22;8829;47.932;7.810;2023-03-23T03:21:01;15.50;99.90
17423;DHT22;8829;47.932;7.810;2023-03-23T03:23:32;15.50;99.90
17423;DHT22;8829;47.932;7.810;2023-03-23T03:26:00;15.60;99.90
17423;DHT22;8829;47.932;7.810;2023-03-23T03:28:31;15.70;99.90
17423;DHT22;8829;47.932;7.810;2023-03-23T03:31:01;15.70;99.90
17423;DHT22;8829;47.932;7.810;2023-03-23T03:33:30;15.80;99.90
17423;DHT22;8829;47.932;7.810;2023-03-23T03:36:02;15.80;99.90
17423;DHT22;8829;47.932;7.810;2023-03-23T03:38:29;15.80;99.90
17423;DHT22;8829;47.932;7.810;2023-03-23T03:40:56;15.80;99.90
17423;DHT22;8829;47.932;7.810;2023-03-23T03:43:23;15.80;99.90
17423;DHT22;8829;47.932;7.810;2023-03-23T03:45:50;15.80;99.90
17423;DHT22;8829;47.932;7.810;2023-03-23T03:48:16;15.90;99.90
17423;DHT22;8829;47.932;7.810;2023-03-23T03:50:43;15.90;99.90
17423;DHT22;8829;47.932;7.810;2023-03-23T03:53:12;15.90;99.90
17423;DHT22;8829;47.932;7.810;2023-03-23T03:55:39;15.90;99.90
17423;DHT22;8829;47.932;7.810;2023-03-23T03:58:13;15.90;99.90
17423;DHT22;8829;47.932;7.810;2023-03-23T04:00:40;15.80;99.90
17423;DHT22;8829;47.932;7.810;2023-03-23T04:03:07;15.80;99.90
17423;DHT22;8829;47.932;7.810;2023-03-23T04:05:34;15.80;99.90
17423;DHT22;8829;47.932;7.810;2023-03-23T04:08:02;15.80;99.90
17423;DHT22;8829;47.932;7.810;2023-03-23T04:10:31;15.80;99.90
17423;DHT22;8829;47.932;7.810;2023-03-23T04:12:59;15.70;99.90
17423;DHT22;8829;47.932;7.810;2023-03-23T04:15:26;15.70;99.90
17423;DHT22;8829;47.932;7.810;2023-03-23T04:17:52;15.80;99.90
17423;DHT22;8829;47.932;7.810;2023-03-23T04:20:22;15.80;99.90
17423;DHT22;8829;47.932;7.810;2023-03-23T04:22:49;15.80;99.90
17423;DHT22;8829;47.932;7.810;2023-03-23T04:25:18;15.80;99.90
17423;DHT22;8829;47.932;7.810;2023-03-23T04:27:48;15.80;99.90
17423;DHT22;8829;47.932;7.810;2023-03-23T04:30:18;15.70;99.90
17423;DHT22;8829;47.932;7.810;2023-03-23T04:32:45;15.80;99.90
17423;DHT22;8829;47.932;7.810;2023-03-23T04:35:16;15.80;99.90
17423;DHT22;8829;47.932;7.810;2023-03-23T04:37:43;15.80;99.90
17423;DHT22;8829;47.932;7.810;2023-03-23T04:40:11;15.80;99.90
17423;DHT22;8829;47.932;7.810;2023-03-23T04:42:40;15.70;99.90
17423;DHT22;8829;47.932;7.810;2023-03-23T04:45:13;15.70;99.90
17423;DHT22;8829;47.932;7.810;2023-03-23T04:47:41;15.70;99.90
17423;DHT22;8829;47.932;7.810;2023-03-23T04:50:19;15.60;99.90
17423;DHT22;8829;47.932;7.810;2023-03-23T04:52:45;15.60;99.90
17423;DHT22;8829;47.932;7.810;2023-03-23T04:55:13;15.60;99.90
17423;DHT22;8829;47.932;7.810;2023-03-23T04:57:40;15.60;99.90
17423;DHT22;8829;47.932;7.810;2023-03-23T05:00:08;15.60;99.90
17423;DHT22;8829;47.932;7.810;2023-03-23T05:02:38;15.60;99.90
17423;DHT22;8829;47.932;7.810;2023-03-23T05:05:06;15.60;99.90
17423;DHT22;8829;47.932;7.810;2023-03-23T05:07:33;15.50;99.90
17423;DHT22;8829;47.932;7.810;2023-03-23T05:09:59;15.50;99.90
17423;DHT22;8829;47.932;7.810;2023-03-23T05:12:26;15.50;99.90
17423;DHT22;8829;47.932;7.810;2023-03-23T05:14:53;15.50;99.90
17423;DHT22;8829;47.932;7.810;2023-03-23T05:17:20;15.40;99.90
17423;DHT22;8829;47.932;7.810;2023-03-23T05:19:51;15.40;99.90
17423;DHT22;8829;47.932;7.810;2023-03-23T05:22:18;15.40;99.90
17423;DHT22;8829;47.932;7.810;2023-03-23T05:24:46;15.40;99.90
17423;DHT22;8829;47.932;7.810;2023-03-23T05:27:13;15.40;99.90
17423;DHT22;8829;47.932;7.810;2023-03-23T05:29:43;15.30;99.90
17423;DHT22;8829;47.932;7.810;2023-03-23T05:32:11;15.30;99.90
17423;DHT22;8829;47.932;7.810;2023-03-23T05:34:38;15.30;99.90
17423;DHT22;8829;47.932;7.810;2023-03-23T05:37:06;15.30;99.90
17423;DHT22;8829;47.932;7.810;2023-03-23T05:39:33;15.20;99.90
17423;DHT22;8829;47.932;7.810;2023-03-23T05:41:59;15.10;99.90
17423;DHT22;8829;47.932;7.810;2023-03-23T05:44:26;15.10;99.90
17423;DHT22;8829;47.932;7.810;2023-03-23T05:46:53;15.10;99.90
17423;DHT22;8829;47.932;7.810;2023-03-23T05:49:19;15.10;99.90
17423;DHT22;8829;47.932;7.810;2023-03-23T05:51:46;15.10;99.90
17423;DHT22;8829;47.932;7.810;2023-03-23T05:54:16;15.10;99.90
17423;DHT22;8829;47.932;7.810;2023-03-23T05:56:43;15.10;99.90
17423;DHT22;8829;47.932;7.810;2023-03-23T05:59:10;15.10;99.90
17423;DHT22;8829;47.932;7.810;2023-03-23T06:01:37;15.10;99.90
17423;DHT22;8829;47.932;7.810;2023-03-23T06:04:04;15.10;99.90
17423;DHT22;8829;47.932;7.810;2023-03-23T06:06:31;15.00;99.90
17423;DHT22;8829;47.932;7.810;2023-03-23T06:08:58;15.00;99.90
17423;DHT22;8829;47.932;7.810;2023-03-23T06:11:26;15.00;99.90
17423;DHT22;8829;47.932;7.810;2023-03-23T06:13:53;15.00;99.90
17423;DHT22;8829;47.932;7.810;2023-03-23T06:16:20;15.00;99.90
17423;DHT22;8829;47.932;7.810;2023-03-23T06:18:46;15.00;99.90
17423;DHT22;8829;47.932;7.810;2023-03-23T06:21:13;14.90;99.90
17423;DHT22;8829;47.932;7.810;2023-03-23T06:23:40;14.80;99.90
17423;DHT22;8829;47.932;7.810;2023-03-23T06:26:08;14.80;99.90
17423;DHT22;8829;47.932;7.810;2023-03-23T06:28:37;14.80;99.90
17423;DHT22;8829;47.932;7.810;2023-03-23T06:31:05;14.80;99.90
17423;DHT22;8829;47.932;7.810;2023-03-23T06:33:33;14.80;99.90
17423;DHT22;8829;47.932;7.810;2023-03-23T06:36:01;14.80;99.90
17423;DHT22;8829;47.932;7.810;2023-03-23T06:38:28;14.80;99.90
17423;DHT22;8829;47.932;7.810;2023-03-23T06:40:55;14.80;99.90
17423;DHT22;8829;47.932;7.810;2023-03-23T06:43:22;14.80;99.90
17423;DHT22;8829;47.932;7.810;2023-03-23T06:45:51;14.90;99.90
17423;DHT22;8829;47.932;7.810;2023-03-23T06:48:17;14.90;99.90
17423;DHT22;8829;47.932;7.810;2023-03-23T06:50:45;14.90;99.90
17423;DHT22;8829;47.932;7.810;2023-03-23T06:53:12;14.90;99.90
17423;DHT22;8829;47.932;7.810;2023-03-23T06:55:39;15.00;99.90
17423;DHT22;8829;47.932;7.810;2023-03-23T06:58:08;15.10;99.90
17423;DHT22;8829;47.932;7.810;2023-03-23T07:00:35;15.00;99.90
17423;DHT22;8829;47.932;7.810;2023-03-23T07:03:04;15.10;99.90
17423;DHT22;8829;47.932;7.810;2023-03-23T07:05:32;15.00;99.90
17423;DHT22;8829;47.932;7.810;2023-03-23T07:07:59;15.00;99.90
17423;DHT22;8829;47.932;7.810;2023-03-23T07:10:26;14.90;99.90
17423;DHT22;8829;47.932;7.810;2023-03-23T07:12:52;14.90;99.90
17423;DHT22;8829;47.932;7.810;2023-03-23T07:15:19;14.90;99.90
17423;DHT22;8829;47.932;7.810;2023-03-23T07:17:47;14.90;99.90
17423;DHT22;8829;47.932;7.810;2023-03-23T07:20:15;14.90;99.90
17423;DHT22;8829;47.932;7.810;2023-03-23T07:22:42;14.90;99.90
17423;DHT22;8829;47.932;7.810;2023-03-23T07:25:09;14.90;99.90
17423;DHT22;8829;47.932;7.810;2023-03-23T07:27:35;14.90;99.90
17423;DHT22;8829;47.932;7.810;2023-03-23T07:30:03;14.90;99.90
17423;DHT22;8829;47.932;7.810;2023-03-23T07:32:30;14.90;99.90
17423;DHT22;8829;47.932;7.810;2023-03-23T07:34:56;14.90;99.90
17423;DHT22;8829;47.932;7.810;2023-03-23T07:37:25;14.90;99.90
17423;DHT22;8829;47.932;7.810;2023-03-23T07:39:51;14.90;99.90
17423;DHT22;8829;47.932;7.810;2023-03-23T07:42:18;14.90;99.90
17423;DHT22;8829;47.932;7.810;2023-03-23T07:44:45;14.80;99.90
17423;DHT22;8829;47.932;7.810;2023-03-23T07:47:12;14.80;99.90
17423;DHT22;8829;47.932;7.810;2023-03-23T07:49:38;14.70;99.90
17423;DHT22;8829;47.932;7.810;2023-03-23T07:52:05;14.70;99.90
17423;DHT22;8829;47.932;7.810;2023-03-23T07:54:33;14.60;99.90
17423;DHT22;8829;47.932;7.810;2023-03-23T07:57:00;14.80;99.90
17423;DHT22;8829;47.932;7.810;2023-03-23T07:59:26;14.60;99.90
17423;DHT22;8829;47.932;7.810;2023-03-23T08:01:53;14.60;99.90
17423;DHT22;8829;47.932;7.810;2023-03-23T08:04:20;14.60;99.90
17423;DHT22;8829;47.932;7.810;2023-03-23T08:06:46;14.50;99.90
17423;DHT22;8829;47.932;7.810;2023-03-23T08:09:13;14.50;99.90
17423;DHT22;8829;47.932;7.810;2023-03-23T08:11:41;14.50;99.90
17423;DHT22;8829;47.932;7.810;2023-03-23T08:14:09;14.40;99.90
17423;DHT22;8829;47.932;7.810;2023-03-23T08:16:35;14.40;99.90
17423;DHT22;8829;47.932;7.810;2023-03-23T08:19:02;14.30;99.90
17423;DHT22;8829;47.932;7.810;2023-03-23T08:21:30;14.30;99.90
17423;DHT22;8829;47.932;7.810;2023-03-23T08:23:58;14.20;99.90
17423;DHT22;8829;47.932;7.810;2023-03-23T08:26:25;14.10;99.90
17423;DHT22;8829;47.932;7.810;2023-03-23T08:28:54;14.10;99.90
17423;DHT22;8829;47.932;7.810;2023-03-23T08:31:20;14.20;99.90
17423;DHT22;8829;47.932;7.810;2023-03-23T08:33:47;14.30;99.90
17423;DHT22;8829;47.932;7.810;2023-03-23T08:36:14;14.40;99.90
17423;DHT22;8829;47.932;7.810;2023-03-23T08:38:41;14.50;99.90
17423;DHT22;8829;47.932;7.810;2023-03-23T08:41:09;14.50;99.90
17423;DHT22;8829;47.932;7.810;2023-03-23T08:43:35;14.50;99.90
17423;DHT22;8829;47.932;7.810;2023-03-23T08:46:05;14.40;99.90
17423;DHT22;8829;47.932;7.810;2023-03-23T08:48:35;14.30;99.90
17423;DHT22;8829;47.932;7.810;2023-03-23T08:51:02;14.40;99.90
17423;DHT22;8829;47.932;7.810;2023-03-23T08:53:29;14.40;99.90
17423;DHT22;8829;47.932;7.810;2023-03-23T08:55:56;14.50;99.90
17423;DHT22;8829;47.932;7.810;2023-03-23T08:58:28;14.60;99.90
17423;DHT22;8829;47.932;7.810;2023-03-23T09:00:55;14.70;99.90
17423;DHT22;8829;47.932;7.810;2023-03-23T09:03:23;14.60;99.90
17423;DHT22;8829;47.932;7.810;2023-03-23T09:05:50;14.70;99.90
17423;DHT22;8829;47.932;7.810;2023-03-23T09:08:17;14.70;99.90
17423;DHT22;8829;47.932;7.810;2023-03-23T09:10:43;14.70;99.90
17423;DHT22;8829;47.932;7.810;2023-03-23T09:13:10;14.70;99.90
17423;DHT22;8829;47.932;7.810;2023-03-23T09:15:37;14.70;99.90
17423;DHT22;8829;47.932;7.810;2023-03-23T09:18:04;14.70;99.90
17423;DHT22;8829;47.932;7.810;2023-03-23T09:20:32;14.80;99.90
17423;DHT22;8829;47.932;7.810;2023-03-23T09:22:59;15.00;99.90
17423;DHT22;8829;47.932;7.810;2023-03-23T09:25:27;15.00;99.90
17423;DHT22;8829;47.932;7.810;2023-03-23T09:27:55;15.00;99.90
17423;DHT22;8829;47.932;7.810;2023-03-23T09:30:24;15.00;99.90
17423;DHT22;8829;47.932;7.810;2023-03-23T09:32:51;15.10;99.90
17423;DHT22;8829;47.932;7.810;2023-03-23T09:35:18;15.20;99.90
17423;DHT22;8829;47.932;7.810;2023-03-23T09:37:50;15.30;99.90
17423;DHT22;8829;47.932;7.810;2023-03-23T09:40:19;15.50;99.90
17423;DHT22;8829;47.932;7.810;2023-03-23T09:43:00;15.60;99.90
17423;DHT22;8829;47.932;7.810;2023-03-23T09:45:33;15.70;99.90
17423;DHT22;8829;47.932;7.810;2023-03-23T09:48:19;15.90;99.90
17423;DHT22;8829;47.932;7.810;2023-03-23T09:50:55;16.00;99.90
17423;DHT22;8829;47.932;7.810;2023-03-23T09:53:27;16.10;99.90
17423;DHT22;8829;47.932;7.810;2023-03-23T09:56:00;16.10;99.90
17423;DHT22;8829;47.932;7.810;2023-03-23T09:58:29;16.20;99.90
17423;DHT22;8829;47.932;7.810;2023-03-23T10:01:02;16.20;99.90
17423;DHT22;8829;47.932;7.810;2023-03-23T10:03:38;16.30;99.90
17423;DHT22;8829;47.932;7.810;2023-03-23T10:06:08;16.30;99.90
17423;DHT22;8829;47.932;7.810;2023-03-23T10:08:39;16.30;99.90
17423;DHT22;8829;47.932;7.810;2023-03-23T10:11:11;16.20;99.90
17423;DHT22;8829;47.932;7.810;2023-03-23T10:13:52;16.30;99.90
17423;DHT22;8829;47.932;7.810;2023-03-23T10:16:22;16.30;99.90
17423;DHT22;8829;47.932;7.810;2023-03-23T10:18:56;16.30;99.90
17423;DHT22;8829;47.932;7.810;2023-03-23T10:21:26;16.40;99.90
17423;DHT22;8829;47.932;7.810;2023-03-23T10:23:59;16.30;99.90
17423;DHT22;8829;47.932;7.810;2023-03-23T10:26:35;16.40;99.90
17423;DHT22;8829;47.932;7.810;2023-03-23T10:29:13;16.50;99.90
17423;DHT22;8829;47.932;7.810;2023-03-23T10:31:44;16.50;99.90
17423;DHT22;8829;47.932;7.810;2023-03-23T10:34:16;16.60;99.90
17423;DHT22;8829;47.932;7.810;2023-03-23T10:36:55;16.80;99.90
17423;DHT22;8829;47.932;7.810;2023-03-23T10:39:27;16.90;99.90
17423;DHT22;8829;47.932;7.810;2023-03-23T10:41:55;17.00;99.90
17423;DHT22;8829;47.932;7.810;2023-03-23T10:44:24;17.10;99.90
17423;DHT22;8829;47.932;7.810;2023-03-23T10:46:56;17.20;99.90
17423;DHT22;8829;47.932;7.810;2023-03-23T10:49:26;17.30;99.90
17423;DHT22;8829;47.932;7.810;2023-03-23T10:51:59;17.30;99.90
17423;DHT22;8829;47.932;7.810;2023-03-23T10:54:35;17.40;99.90
17423;DHT22;8829;47.932;7.810;2023-03-23T10:57:12;17.20;99.90
17423;DHT22;8829;47.932;7.810;2023-03-23T10:59:40;17.30;99.90
17423;DHT22;8829;47.932;7.810;2023-03-23T11:02:17;17.30;99.90
17423;DHT22;8829;47.932;7.810;2023-03-23T11:04:55;17.30;99.90
17423;DHT22;8829;47.932;7.810;2023-03-23T11:07:27;17.40;99.90
17423;DHT22;8829;47.932;7.810;2023-03-23T11:09:59;17.40;99.90
17423;DHT22;8829;47.932;7.810;2023-03-23T11:12:33;17.40;99.90
17423;DHT22;8829;47.932;7.810;2023-03-23T11:15:09;17.30;99.90
17423;DHT22;8829;47.932;7.810;2023-03-23T11:17:42;17.30;99.90
17423;DHT22;8829;47.932;7.810;2023-03-23T11:20:12;17.30;99.90
17423;DHT22;8829;47.932;7.810;2023-03-23T11:22:42;17.30;99.90
17423;DHT22;8829;47.932;7.810;2023-03-23T11:25:13;17.10;99.90
17423;DHT22;8829;47.932;7.810;2023-03-23T11:27:40;17.10;99.90
17423;DHT22;8829;47.932;7.810;2023-03-23T11:30:10;17.10;99.90
17423;DHT22;8829;47.932;7.810;2023-03-23T11:32:42;17.10;99.90
17423;DHT22;8829;47.932;7.810;2023-03-23T11:35:19;17.20;99.90
17423;DHT22;8829;47.932;7.810;2023-03-23T11:37:49;17.00;99.90
17423;DHT22;8829;47.932;7.810;2023-03-23T11:40:21;17.00;99.90
17423;DHT22;8829;47.932;7.810;2023-03-23T11:42:49;17.10;99.90
17423;DHT22;8829;47.932;7.810;2023-03-23T11:45:20;17.20;99.90
17423;DHT22;8829;47.932;7.810;2023-03-23T11:47:55;17.30;99.90
17423;DHT22;8829;47.932;7.810;2023-03-23T11:50:25;17.40;99.90
17423;DHT22;8829;47.932;7.810;2023-03-23T11:52:58;17.50;99.90
17423;DHT22;8829;47.932;7.810;2023-03-23T11:55:32;17.60;99.90
17423;DHT22;8829;47.932;7.810;2023-03-23T11:58:07;17.70;99.90
17423;DHT22;8829;47.932;7.810;2023-03-23T12:00:34;17.60;99.90
17423;DHT22;8829;47.932;7.810;2023-03-23T12:03:06;17.60;99.90
17423;DHT22;8829;47.932;7.810;2023-03-23T12:05:43;17.60;99.90
17423;DHT22;8829;47.932;7.810;2023-03-23T12:08:34;17.60;99.90
17423;DHT22;8829;47.932;7.810;2023-03-23T12:11:10;17.50;99.90
17423;DHT22;8829;47.932;7.810;2023-03-23T12:13:50;17.60;99.90
17423;DHT22;8829;47.932;7.810;2023-03-23T12:16:27;17.60;99.90
17423;DHT22;8829;47.932;7.810;2023-03-23T12:19:03;17.70;99.90
17423;DHT22;8829;47.932;7.810;2023-03-23T12:21:37;17.60;99.90
17423;DHT22;8829;47.932;7.810;2023-03-23T12:24:15;17.50;99.90
17423;DHT22;8829;47.932;7.810;2023-03-23T12:26:49;17.40;99.90
17423;DHT22;8829;47.932;7.810;2023-03-23T12:29:39;17.40;99.90
17423;DHT22;8829;47.932;7.810;2023-03-23T12:32:29;17.50;99.90
17423;DHT22;8829;47.932;7.810;2023-03-23T12:35:04;17.60;99.90
17423;DHT22;8829;47.932;7.810;2023-03-23T12:37:45;17.50;99.90
17423;DHT22;8829;47.932;7.810;2023-03-23T12:43:13;17.30;99.90
17423;DHT22;8829;47.932;7.810;2023-03-23T12:45:52;17.20;99.90
17423;DHT22;8829;47.932;7.810;2023-03-23T12:48:23;17.10;99.90
17423;DHT22;8829;47.932;7.810;2023-03-23T12:51:06;16.90;99.90
17423;DHT22;8829;47.932;7.810;2023-03-23T12:53:38;16.90;99.90
17423;DHT22;8829;47.932;7.810;2023-03-23T12:56:12;16.90;99.90
17423;DHT22;8829;47.932;7.810;2023-03-23T12:58:45;16.80;99.90
17423;DHT22;8829;47.932;7.810;2023-03-23T13:01:13;16.90;99.90
17423;DHT22;8829;47.932;7.810;2023-03-23T13:03:49;16.80;99.90
17423;DHT22;8829;47.932;7.810;2023-03-23T13:06:22;16.80;99.90
17423;DHT22;8829;47.932;7.810;2023-03-23T13:08:54;16.90;99.90
17423;DHT22;8829;47.932;7.810;2023-03-23T13:11:28;16.90;99.90
17423;DHT22;8829;47.932;7.810;2023-03-23T13:14:06;16.90;99.90
17423;DHT22;8829;47.932;7.810;2023-03-23T13:16:42;16.80;99.90
17423;DHT22;8829;47.932;7.810;2023-03-23T13:19:16;16.70;99.90
17423;DHT22;8829;47.932;7.810;2023-03-23T13:21:47;16.70;99.90
17423;DHT22;8829;47.932;7.810;2023-03-23T13:24:17;16.60;99.90
17423;DHT22;8829;47.932;7.810;2023-03-23T13:26:45;16.60;99.90
17423;DHT22;8829;47.932;7.810;2023-03-23T13:29:16;16.50;99.90
17423;DHT22;8829;47.932;7.810;2023-03-23T13:31:46;16.50;99.90
17423;DHT22;8829;47.932;7.810;2023-03-23T13:34:17;16.50;99.90
17423;DHT22;8829;47.932;7.810;2023-03-23T13:36:54;16.60;99.90
17423;DHT22;8829;47.932;7.810;2023-03-23T13:39:23;16.70;99.90
17423;DHT22;8829;47.932;7.810;2023-03-23T13:42:03;16.70;99.90
17423;DHT22;8829;47.932;7.810;2023-03-23T13:44:43;16.70;99.90
17423;DHT22;8829;47.932;7.810;2023-03-23T13:47:25;16.70;99.90
17423;DHT22;8829;47.932;7.810;2023-03-23T13:49:55;16.80;99.90
17423;DHT22;8829;47.932;7.810;2023-03-23T13:52:24;16.80;99.90
17423;DHT22;8829;47.932;7.810;2023-03-23T13:55:18;16.90;99.90
17423;DHT22;8829;47.932;7.810;2023-03-23T13:57:51;16.80;99.90
17423;DHT22;8829;47.932;7.810;2023-03-23T14:00:47;16.80;99.90
17423;DHT22;8829;47.932;7.810;2023-03-23T14:03:18;16.90;99.90
17423;DHT22;8829;47.932;7.810;2023-03-23T14:05:48;16.80;99.90
17423;DHT22;8829;47.932;7.810;2023-03-23T14:08:22;16.70;99.90
17423;DHT22;8829;47.932;7.810;2023-03-23T14:10:53;16.60;99.90
17423;DHT22;8829;47.932;7.810;2023-03-23T14:13:25;16.50;99.90
17423;DHT22;8829;47.932;7.810;2023-03-23T14:15:58;16.50;99.90
17423;DHT22;8829;47.932;7.810;2023-03-23T14:18:30;16.30;99.90
17423;DHT22;8829;47.932;7.810;2023-03-23T14:20:57;16.30;99.90
17423;DHT22;8829;47.932;7.810;2023-03-23T14:23:25;16.30;99.90
17423;DHT22;8829;47.932;7.810;2023-03-23T14:25:56;16.30;99.90
17423;DHT22;8829;47.932;7.810;2023-03-23T14:28:31;16.20;99.90
17423;DHT22;8829;47.932;7.810;2023-03-23T14:30:59;16.20;99.90
17423;DHT22;8829;47.932;7.810;2023-03-23T14:33:26;16.20;99.90
17423;DHT22;8829;47.932;7.810;2023-03-23T14:35:54;16.20;99.90
17423;DHT22;8829;47.932;7.810;2023-03-23T14:38:23;16.20;99.90
17423;DHT22;8829;47.932;7.810;2023-03-23T14:40:54;16.10;99.90
17423;DHT22;8829;47.932;7.810;2023-03-23T14:43:25;16.20;99.90
17423;DHT22;8829;47.932;7.810;2023-03-23T14:45:54;16.20;99.90
17423;DHT22;8829;47.932;7.810;2023-03-23T14:48:23;16.20;99.90
17423;DHT22;8829;47.932;7.810;2023-03-23T14:50:51;16.30;99.90
17423;DHT22;8829;47.932;7.810;2023-03-23T14:53:21;16.30;99.90
17423;DHT22;8829;47.932;7.810;2023-03-23T14:55:50;16.30;99.90
17423;DHT22;8829;47.932;7.810;2023-03-23T14:58:19;16.30;99.90
17423;DHT22;8829;47.932;7.810;2023-03-23T15:00:50;16.30;99.90
17423;DHT22;8829;47.932;7.810;2023-03-23T15:03:20;16.40;99.90
17423;DHT22;8829;47.932;7.810;2023-03-23T15:05:50;16.40;99.90
17423;DHT22;8829;47.932;7.810;2023-03-23T15:08:23;16.40;99.90
17423;DHT22;8829;47.932;7.810;2023-03-23T15:10:57;16.40;99.90
17423;DHT22;8829;47.932;7.810;2023-03-23T15:13:25;16.50;99.90
17423;DHT22;8829;47.932;7.810;2023-03-23T15:16:01;16.50;99.90
17423;DHT22;8829;47.932;7.810;2023-03-23T15:18:35;16.50;99.90
17423;DHT22;8829;47.932;7.810;2023-03-23T15:21:11;16.50;99.90
17423;DHT22;8829;47.932;7.810;2023-03-23T15:23:45;16.50;99.90
17423;DHT22;8829;47.932;7.810;2023-03-23T15:26:29;16.50;99.90
17423;DHT22;8829;47.932;7.810;2023-03-23T15:29:11;16.50;99.90
17423;DHT22;8829;47.932;7.810;2023-03-23T15:31:43;16.40;99.90
17423;DHT22;8829;47.932;7.810;2023-03-23T15:34:18;16.40;99.90
17423;DHT22;8829;47.932;7.810;2023-03-23T15:36:51;16.40;99.90
17423;DHT22;8829;47.932;7.810;2023-03-23T15:39:18;16.40;99.90
17423;DHT22;8829;47.932;7.810;2023-03-23T15:41:47;16.40;99.90
17423;DHT22;8829;47.932;7.810;2023-03-23T15:44:23;16.40;99.90
17423;DHT22;8829;47.932;7.810;2023-03-23T15:46:52;16.50;99.90
17423;DHT22;8829;47.932;7.810;2023-03-23T15:49:20;16.50;99.90
17423;DHT22;8829;47.932;7.810;2023-03-23T15:51:50;16.40;99.90
17423;DHT22;8829;47.932;7.810;2023-03-23T15:54:17;16.50;99.90
17423;DHT22;8829;47.932;7.810;2023-03-23T15:56:44;16.50;99.90
17423;DHT22;8829;47.932;7.810;2023-03-23T15:59:11;16.60;99.90
17423;DHT22;8829;47.932;7.810;2023-03-23T16:01:39;16.60;99.90
17423;DHT22;8829;47.932;7.810;2023-03-23T16:04:09;16.50;99.90
17423;DHT22;8829;47.932;7.810;2023-03-23T16:06:37;16.50;99.90
17423;DHT22;8829;47.932;7.810;2023-03-23T16:09:06;16.50;99.90
17423;DHT22;8829;47.932;7.810;2023-03-23T16:11:35;16.50;99.90